Time;durP1;ratioP1;P1;durP2;ratioP2;P2;SDS_P1;SDS_P2;PMS_P1;PMS_P2;Temp;Humidity;BMP_temperature;BMP_pressure;BME280_temperature;BME280_humidity;BME280_pressure;Samples;Min_cycle;Max_cycle;Signal;HPM_P1;HPM_P2
2022/09/24 00:02:21;;;;;;;12.65;7.95;;;;;;;;;;1808859;78;21141;-82
2022/09/24 00:04:51;;;;;;;9.50;6.92;;;;;;;;;;1794903;78;21246;-85
2022/09/24 00:07:21;;;;;;;9.78;7.22;;;;;;;;;;1801610;78;21211;-85
2022/09/24 00:09:52;;;;;;;11.40;6.65;;;;;;;;;;1796364;78;21448;-84
2022/09/24 00:12:22;;;;;;;9.68;6.17;;;;;;;;;;1791939;79;21228;-84
2022/09/24 00:14:52;;;;;;;11.28;5.90;;;;;;;;;;1797730;79;21178;-83
2022/09/24 00:17:22;;;;;;;7.62;5.92;;;;;;;;;;1796530;78;21151;-85
2022/09/24 00:19:52;;;;;;;8.33;5.40;;;;;;;;;;1788445;78;21142;-84
2022/09/24 00:22:22;;;;;;;12.37;5.78;;;;;;;;;;1800537;78;21629;-84
2022/09/24 00:27:24;;;;;;;6.75;4.45;;;;;;;;;;1797591;78;21294;-85
2022/09/24 00:29:54;;;;;;;8.10;4.08;;;;;;;;;;1792281;78;21168;-81
2022/09/24 00:32:24;;;;;;;6.67;4.08;;;;;;;;;;1799718;78;21165;-82
2022/09/24 00:34:54;;;;;;;6.47;3.87;;;;;;;;;;1812203;77;21778;-82
2022/09/24 00:37:27;;;;;;;6.25;4.28;;;;;;;;;;1810002;77;21158;-83
2022/09/24 00:39:56;;;;;;;12.65;4.40;;;;;;;;;;1873122;74;21228;-82
2022/09/24 00:42:28;;;;;;;7.05;3.92;;;;;;;;;;1879799;74;21567;-84
2022/09/24 00:44:58;;;;;;;6.37;3.52;;;;;;;;;;1873173;75;21189;-83
2022/09/24 00:47:28;;;;;;;6.40;3.60;;;;;;;;;;1877309;74;21091;-83
2022/09/24 00:49:59;;;;;;;7.08;3.77;;;;;;;;;;1877666;75;21115;-83
2022/09/24 00:52:29;;;;;;;7.40;3.92;;;;;;;;;;1841479;76;21154;-83
2022/09/24 00:55:00;;;;;;;6.20;3.72;;;;;;;;;;1847340;76;21202;-82
2022/09/24 00:57:31;;;;;;;6.15;4.00;;;;;;;;;;1847688;76;21088;-82
2022/09/24 01:00:02;;;;;;;7.12;4.55;;;;;;;;;;1854993;75;21123;-85
2022/09/24 01:02:34;;;;;;;6.67;3.72;;;;;;;;;;1850944;76;21165;-83
2022/09/24 01:05:04;;;;;;;7.25;4.10;;;;;;;;;;1848342;76;21595;-83
2022/09/24 01:07:34;;;;;;;10.35;3.95;;;;;;;;;;1855802;76;21112;-83
2022/09/24 01:10:05;;;;;;;10.00;4.00;;;;;;;;;;1846665;76;21139;-82
2022/09/24 01:12:36;;;;;;;5.62;3.70;;;;;;;;;;1851457;76;21167;-83
2022/09/24 01:15:08;;;;;;;6.62;3.77;;;;;;;;;;1822092;77;21123;-82
2022/09/24 01:17:39;;;;;;;7.30;3.42;;;;;;;;;;1890558;74;21646;-83
2022/09/24 01:20:10;;;;;;;5.47;3.20;;;;;;;;;;1847701;76;21123;-85
2022/09/24 01:22:42;;;;;;;6.67;3.20;;;;;;;;;;1856428;76;21300;-86
2022/09/24 01:25:13;;;;;;;5.53;2.62;;;;;;;;;;1846175;76;21103;-85
2022/09/24 01:27:45;;;;;;;7.70;3.25;;;;;;;;;;1846238;76;21124;-85
2022/09/24 01:30:15;;;;;;;9.53;3.55;;;;;;;;;;1846975;76;21171;-86
2022/09/24 01:32:48;;;;;;;5.83;3.10;;;;;;;;;;1851648;76;21158;-84
2022/09/24 01:35:20;;;;;;;5.95;2.90;;;;;;;;;;1856654;76;21111;-84
2022/09/24 01:37:52;;;;;;;4.58;2.65;;;;;;;;;;1815567;77;21230;-84
2022/09/24 01:40:24;;;;;;;6.70;2.65;;;;;;;;;;1815052;78;21713;-84
2022/09/24 01:42:58;;;;;;;5.28;2.77;;;;;;;;;;1817734;77;21150;-83
2022/09/24 01:45:30;;;;;;;;;;;;;;;;;;1825070;77;21147;-84
2022/09/24 01:48:01;;;;;;;7.30;2.90;;;;;;;;;;1856816;75;20168;-85
2022/09/24 01:50:33;;;;;;;5.70;2.90;;;;;;;;;;1878271;74;21178;-85
2022/09/24 01:53:04;;;;;;;3.52;2.47;;;;;;;;;;1882998;74;21106;-84
2022/09/24 01:55:37;;;;;;;6.45;3.15;;;;;;;;;;1894236;74;22044;-84
2022/09/24 01:58:09;;;;;;;4.75;2.90;;;;;;;;;;1893926;74;21652;-84
2022/09/24 02:00:41;;;;;;;4.45;2.77;;;;;;;;;;1881037;74;21147;-84
2022/09/24 02:03:12;;;;;;;5.00;3.02;;;;;;;;;;1882327;74;21178;-85
2022/09/24 02:05:44;;;;;;;6.45;2.80;;;;;;;;;;1892497;74;21151;-84
2022/09/24 02:08:15;;;;;;;5.15;3.08;;;;;;;;;;1892252;74;21137;-83
2022/09/24 02:10:46;;;;;;;6.30;3.45;;;;;;;;;;1881900;75;21091;-83
2022/09/24 02:13:17;;;;;;;5.75;2.67;;;;;;;;;;1891195;74;21051;-85
2022/09/24 02:15:49;;;;;;;4.25;2.95;;;;;;;;;;1893183;74;21106;-83
2022/09/24 02:18:20;;;;;;;3.37;2.58;;;;;;;;;;1889594;74;21133;-84
2022/09/24 02:20:52;;;;;;;4.65;3.02;;;;;;;;;;1817468;77;21230;-85
2022/09/24 02:23:23;;;;;;;4.45;2.67;;;;;;;;;;1851579;76;21170;-84
2022/09/24 02:25:54;;;;;;;4.62;2.70;;;;;;;;;;1846313;75;21618;-85
2022/09/24 02:28:25;;;;;;;6.12;2.65;;;;;;;;;;1817484;77;21233;-84
2022/09/24 02:30:56;;;;;;;5.45;2.67;;;;;;;;;;1853646;75;21261;-86
2022/09/24 02:35:59;;;;;;;3.15;2.22;;;;;;;;;;1819441;77;21841;-87
2022/09/24 02:38:29;;;;;;;4.65;2.72;;;;;;;;;;1851586;75;21166;-83
2022/09/24 02:40:59;;;;;;;3.60;2.20;;;;;;;;;;1902281;74;21602;-82
2022/09/24 02:43:32;;;;;;;7.03;2.45;;;;;;;;;;1881713;74;21070;-84
2022/09/24 02:46:01;;;;;;;4.60;2.90;;;;;;;;;;1883783;74;21211;-83
2022/09/24 02:48:31;;;;;;;7.78;2.67;;;;;;;;;;1896710;74;21449;-83
2022/09/24 02:51:03;;;;;;;3.37;2.50;;;;;;;;;;1882861;76;21186;-84
2022/09/24 02:53:33;;;;;;;5.85;2.85;;;;;;;;;;1894274;74;21075;-83
2022/09/24 02:56:04;;;;;;;6.00;4.08;;;;;;;;;;1876963;75;21212;-83
2022/09/24 02:58:36;;;;;;;5.80;3.62;;;;;;;;;;1879272;76;21130;-82
2022/09/24 03:01:06;;;;;;;5.95;4.10;;;;;;;;;;1879619;74;21163;-82
2022/09/24 03:03:36;;;;;;;6.78;4.00;;;;;;;;;;1885064;75;21186;-83
2022/09/24 03:06:07;;;;;;;6.15;2.80;;;;;;;;;;1863734;75;21144;-83
2022/09/24 03:08:37;;;;;;;5.35;2.90;;;;;;;;;;1875572;75;21256;-85
2022/09/24 03:11:07;;;;;;;3.58;2.60;;;;;;;;;;1870849;76;21068;-81
2022/09/24 03:13:37;;;;;;;5.70;2.98;;;;;;;;;;1871868;75;21151;-83
2022/09/24 03:16:08;;;;;;;6.15;3.02;;;;;;;;;;1877605;75;21228;-85
2022/09/24 03:18:38;;;;;;;4.37;2.65;;;;;;;;;;1879556;75;21138;-85
2022/09/24 03:21:10;;;;;;;4.47;2.77;;;;;;;;;;1879738;74;21145;-82
2022/09/24 03:23:40;;;;;;;6.85;3.85;;;;;;;;;;1892303;74;21626;-83
2022/09/24 03:26:11;;;;;;;4.28;2.77;;;;;;;;;;1889501;74;21134;-84
2022/09/24 03:28:44;;;;;;;6.47;2.87;;;;;;;;;;1842380;77;21237;-83
2022/09/24 03:31:16;;;;;;;3.70;3.00;;;;;;;;;;1816446;78;21116;-83
2022/09/24 03:33:48;;;;;;;4.97;2.17;;;;;;;;;;1817715;77;21140;-84
2022/09/24 03:36:21;;;;;;;5.33;2.90;;;;;;;;;;1878455;74;21239;-82
2022/09/24 03:38:54;;;;;;;6.22;2.55;;;;;;;;;;1887828;75;21174;-84
2022/09/24 03:41:26;;;;;;;4.05;2.60;;;;;;;;;;1881918;74;21057;-83
2022/09/24 03:43:56;;;;;;;9.45;2.55;;;;;;;;;;1880436;74;21200;-84
2022/09/24 03:46:27;;;;;;;6.50;2.52;;;;;;;;;;1882530;76;21080;-83
2022/09/24 03:48:59;;;;;;;7.05;3.00;;;;;;;;;;1879298;75;21150;-85
2022/09/24 03:51:29;;;;;;;4.33;2.87;;;;;;;;;;1881745;76;21204;-84
2022/09/24 03:53:59;;;;;;;6.15;2.75;;;;;;;;;;1840050;77;22039;-83
2022/09/24 03:56:29;;;;;;;5.00;3.10;;;;;;;;;;1879150;75;21201;-83
2022/09/24 03:58:59;;;;;;;3.83;2.83;;;;;;;;;;1877249;76;21259;-84
2022/09/24 04:01:32;;;;;;;5.30;3.33;;;;;;;;;;1884260;74;21835;-84
2022/09/24 04:04:02;;;;;;;8.58;3.52;;;;;;;;;;1880194;74;21091;-84
2022/09/24 04:06:32;;;;;;;5.25;3.08;;;;;;;;;;1873521;74;21439;-84
2022/09/24 04:09:02;;;;;;;5.10;3.60;;;;;;;;;;1884704;74;21052;-85
2022/09/24 04:11:34;;;;;;;4.35;2.95;;;;;;;;;;1884357;74;21569;-84
2022/09/24 04:14:04;;;;;;;4.85;2.83;;;;;;;;;;1883727;74;21683;-85
2022/09/24 04:16:35;;;;;;;5.15;3.10;;;;;;;;;;1888994;74;21130;-84
2022/09/24 04:19:06;;;;;;;3.27;2.72;;;;;;;;;;1881179;74;21114;-86
2022/09/24 04:21:37;;;;;;;5.10;3.20;;;;;;;;;;1884040;74;21200;-85
2022/09/24 04:24:07;;;;;;;5.12;3.40;;;;;;;;;;1877611;75;21205;-86
2022/09/24 04:26:37;;;;;;;5.08;3.40;;;;;;;;;;1885829;74;21609;-84
2022/09/24 04:29:08;;;;;;;7.30;3.47;;;;;;;;;;1882682;74;21168;-84
2022/09/24 04:31:39;;;;;;;6.03;3.45;;;;;;;;;;1883450;74;21525;-84
2022/09/24 04:34:09;;;;;;;4.72;2.83;;;;;;;;;;1883437;76;21200;-85
2022/09/24 04:36:40;;;;;;;4.08;2.70;;;;;;;;;;1888209;74;21049;-85
2022/09/24 04:39:10;;;;;;;4.67;2.55;;;;;;;;;;1883974;74;21561;-85
2022/09/24 04:41:41;;;;;;;4.03;2.65;;;;;;;;;;1887927;74;21225;-84
2022/09/24 04:44:12;;;;;;;4.08;3.40;;;;;;;;;;1884988;75;21829;-84
2022/09/24 04:46:42;;;;;;;4.60;2.95;;;;;;;;;;1885365;74;21619;-84
2022/09/24 04:49:13;;;;;;;3.85;2.95;;;;;;;;;;1883339;74;21570;-84
2022/09/24 04:51:43;;;;;;;4.60;3.17;;;;;;;;;;1878734;75;21166;-84
2022/09/24 04:54:13;;;;;;;3.70;2.62;;;;;;;;;;1840833;77;21143;-84
2022/09/24 04:56:43;;;;;;;6.42;3.25;;;;;;;;;;1888082;74;21102;-83
2022/09/24 04:59:13;;;;;;;6.20;3.10;;;;;;;;;;1883046;74;21130;-82
2022/09/24 05:01:45;;;;;;;5.72;2.60;;;;;;;;;;1883458;76;21228;-84
2022/09/24 05:04:15;;;;;;;4.53;2.87;;;;;;;;;;1897325;74;21122;-83
2022/09/24 05:06:47;;;;;;;5.15;3.08;;;;;;;;;;1896970;74;21237;-83
2022/09/24 05:09:17;;;;;;;4.45;3.05;;;;;;;;;;1897706;74;21158;-81
2022/09/24 05:11:47;;;;;;;4.42;2.90;;;;;;;;;;1879893;74;21232;-82
2022/09/24 05:14:17;;;;;;;3.62;2.77;;;;;;;;;;1881843;75;21277;-84
2022/09/24 05:16:47;;;;;;;6.53;3.22;;;;;;;;;;1874019;74;21296;-83
2022/09/24 05:19:18;;;;;;;4.30;3.42;;;;;;;;;;1881151;75;21202;-83
2022/09/24 05:21:48;;;;;;;4.20;3.05;;;;;;;;;;1877451;75;21087;-83
2022/09/24 05:24:18;;;;;;;3.87;2.92;;;;;;;;;;1893383;74;21223;-84
2022/09/24 05:29:19;;;;;;;4.85;3.70;;;;;;;;;;1884077;75;21093;-84
2022/09/24 05:31:49;;;;;;;5.83;3.42;;;;;;;;;;1888390;74;21229;-83
2022/09/24 05:34:20;;;;;;;4.83;3.65;;;;;;;;;;1883807;74;21232;-85
2022/09/24 05:36:50;;;;;;;7.65;3.98;;;;;;;;;;1893734;74;21594;-84
2022/09/24 05:39:20;;;;;;;4.15;3.37;;;;;;;;;;1898720;74;21197;-84
2022/09/24 05:41:50;;;;;;;4.50;3.10;;;;;;;;;;1880472;75;21145;-85
2022/09/24 05:44:21;;;;;;;6.10;3.02;;;;;;;;;;1882128;75;21131;-85
2022/09/24 05:46:51;;;;;;;4.83;3.42;;;;;;;;;;1892542;75;21125;-85
2022/09/24 05:49:22;;;;;;;6.55;3.85;;;;;;;;;;1890946;75;21131;-84
2022/09/24 05:51:52;;;;;;;5.60;3.20;;;;;;;;;;1887245;74;21175;-85
2022/09/24 05:54:23;;;;;;;4.10;3.17;;;;;;;;;;1871619;74;21174;-86
2022/09/24 05:56:54;;;;;;;6.80;4.50;;;;;;;;;;1846918;77;21563;-84
2022/09/24 05:59:24;;;;;;;7.72;3.55;;;;;;;;;;1850998;76;21060;-83
2022/09/24 06:01:59;;;;;;;5.72;3.33;;;;;;;;;;1820775;77;21596;-85
2022/09/24 06:04:33;;;;;;;4.62;3.30;;;;;;;;;;1824528;77;21147;-85
2022/09/24 06:07:03;;;;;;;4.92;2.70;;;;;;;;;;1816504;77;21095;-83
2022/09/24 06:09:33;;;;;;;4.42;3.17;;;;;;;;;;1846817;76;21096;-83
2022/09/24 06:12:03;;;;;;;6.62;3.55;;;;;;;;;;1886346;74;21150;-82
2022/09/24 06:14:34;;;;;;;4.95;2.52;;;;;;;;;;1891381;75;21177;-84
2022/09/24 06:17:05;;;;;;;4.30;3.05;;;;;;;;;;1891269;75;21144;-82
2022/09/24 06:19:35;;;;;;;3.75;2.80;;;;;;;;;;1891523;74;21042;-84
2022/09/24 06:22:05;;;;;;;3.72;2.50;;;;;;;;;;1882871;75;21128;-83
2022/09/24 06:24:36;;;;;;;6.85;3.02;;;;;;;;;;1876874;75;21092;-82
2022/09/24 06:27:06;;;;;;;3.42;2.58;;;;;;;;;;1878724;74;21530;-84
2022/09/24 06:29:36;;;;;;;4.60;3.30;;;;;;;;;;1893823;75;21130;-84
2022/09/24 06:32:10;;;;;;;5.47;2.87;;;;;;;;;;1894365;74;21152;-83
2022/09/24 06:34:37;;;;;;;4.00;2.83;;;;;;;;;;1891658;75;21222;-84
2022/09/24 06:37:08;;;;;;;5.70;2.67;;;;;;;;;;1880635;75;21176;-83
2022/09/24 06:39:38;;;;;;;3.87;2.80;;;;;;;;;;1891915;75;21101;-84
2022/09/24 06:42:08;;;;;;;3.65;2.37;;;;;;;;;;1895281;74;22002;-83
2022/09/24 06:44:38;;;;;;;4.15;2.42;;;;;;;;;;1894819;74;21146;-84
2022/09/24 06:47:10;;;;;;;4.08;2.92;;;;;;;;;;1881562;75;21127;-84
2022/09/24 06:49:40;;;;;;;4.25;2.60;;;;;;;;;;1884986;74;21051;-82
2022/09/24 06:52:10;;;;;;;4.17;2.87;;;;;;;;;;1897303;74;21142;-86
2022/09/24 06:54:40;;;;;;;2.75;2.17;;;;;;;;;;1848741;76;21154;-85
2022/09/24 06:57:11;;;;;;;3.72;2.17;;;;;;;;;;1850622;76;21228;-83
2022/09/24 06:59:42;;;;;;;3.45;2.25;;;;;;;;;;1823877;78;21598;-82
2022/09/24 07:02:12;;;;;;;2.80;2.15;;;;;;;;;;1846896;77;21102;-84
2022/09/24 07:04:42;;;;;;;2.98;2.25;;;;;;;;;;1822048;77;21144;-82
2022/09/24 07:09:43;;;;;;;3.90;1.95;;;;;;;;;;1861513;76;21570;-83
2022/09/24 07:12:15;;;;;;;3.60;2.45;;;;;;;;;;1844524;76;21735;-84
2022/09/24 07:14:45;;;;;;;3.58;2.20;;;;;;;;;;1818509;77;21141;-83
2022/09/24 07:17:15;;;;;;;3.12;2.00;;;;;;;;;;1819635;77;21147;-83
2022/09/24 07:19:48;;;;;;;2.72;2.00;;;;;;;;;;1847185;76;21197;-82
2022/09/24 07:22:17;;;;;;;3.72;2.10;;;;;;;;;;1816338;77;21734;-84
2022/09/24 07:24:48;;;;;;;3.85;2.10;;;;;;;;;;1854259;76;21143;-84
2022/09/24 07:27:20;;;;;;;3.37;2.00;;;;;;;;;;1856158;76;21264;-83
2022/09/24 07:29:49;;;;;;;3.67;2.08;;;;;;;;;;1856415;76;21264;-81
2022/09/24 07:32:19;;;;;;;4.40;2.50;;;;;;;;;;1817390;77;21131;-83
2022/09/24 07:34:53;;;;;;;3.92;2.17;;;;;;;;;;1819982;77;21189;-83
2022/09/24 07:37:23;;;;;;;3.83;2.05;;;;;;;;;;1881097;74;21119;-83
2022/09/24 07:39:53;;;;;;;3.45;2.08;;;;;;;;;;1846565;76;21263;-83
2022/09/24 07:42:24;;;;;;;4.80;2.22;;;;;;;;;;1852891;76;21725;-83
2022/09/24 07:44:55;;;;;;;4.25;2.15;;;;;;;;;;1849139;76;21082;-82
2022/09/24 07:47:26;;;;;;;2.87;2.00;;;;;;;;;;1817280;77;21229;-82
2022/09/24 07:49:56;;;;;;;2.62;1.87;;;;;;;;;;1885875;74;21166;-83
2022/09/24 07:52:26;;;;;;;6.30;1.70;;;;;;;;;;1882505;75;21768;-83
2022/09/24 07:54:56;;;;;;;5.55;2.00;;;;;;;;;;1880581;75;21237;-82
2022/09/24 07:57:26;;;;;;;4.30;2.50;;;;;;;;;;1884762;75;21191;-82
2022/09/24 07:59:58;;;;;;;4.50;2.08;;;;;;;;;;1852949;77;21113;-84
2022/09/24 08:02:28;;;;;;;2.65;2.02;;;;;;;;;;1897263;74;21139;-83
2022/09/24 08:04:58;;;;;;;3.85;2.17;;;;;;;;;;1859269;76;21226;-84
2022/09/24 08:07:28;;;;;;;3.35;2.10;;;;;;;;;;1846798;77;21189;-84
2022/09/24 08:10:00;;;;;;;3.95;2.20;;;;;;;;;;1853629;76;21150;-83
2022/09/24 08:12:30;;;;;;;3.50;2.22;;;;;;;;;;1898291;74;21153;-83
2022/09/24 08:15:00;;;;;;;3.87;2.60;;;;;;;;;;1847668;76;21157;-83
2022/09/24 08:17:31;;;;;;;3.52;2.60;;;;;;;;;;1849137;76;21235;-82
2022/09/24 08:20:02;;;;;;;4.65;2.87;;;;;;;;;;1891668;75;21169;-83
2022/09/24 08:22:33;;;;;;;3.25;2.40;;;;;;;;;;1863908;76;21198;-84
2022/09/24 08:25:04;;;;;;;3.60;2.02;;;;;;;;;;1900602;74;21109;-84
2022/09/24 08:27:38;;;;;;;3.45;2.33;;;;;;;;;;1900410;74;21095;-82
2022/09/24 08:30:06;;;;;;;2.80;2.02;;;;;;;;;;1856760;76;21220;-82
2022/09/24 08:32:36;;;;;;;6.08;2.20;;;;;;;;;;1852530;77;21134;-83
2022/09/24 08:35:07;;;;;;;3.77;2.17;;;;;;;;;;1896251;74;21402;-83
2022/09/24 08:37:37;;;;;;;3.95;2.37;;;;;;;;;;1904569;74;21195;-84
2022/09/24 08:40:09;;;;;;;3.25;2.40;;;;;;;;;;1861100;76;21177;-85
2022/09/24 08:42:40;;;;;;;4.80;2.40;;;;;;;;;;1863165;75;21223;-85
2022/09/24 08:47:44;;;;;;;2.85;2.05;;;;;;;;;;1895565;74;21640;-84
2022/09/24 08:50:16;;;;;;;3.80;2.30;;;;;;;;;;1886250;75;21110;-85
2022/09/24 08:52:47;;;;;;;4.08;2.40;;;;;;;;;;1893082;75;21044;-84
2022/09/24 08:55:20;;;;;;;3.58;2.37;;;;;;;;;;1894044;74;21138;-84
2022/09/24 08:57:48;;;;;;;4.62;2.60;;;;;;;;;;1893770;74;21145;-82
2022/09/24 09:00:19;;;;;;;2.77;2.30;;;;;;;;;;1880039;74;21216;-82
2022/09/24 09:02:50;;;;;;;6.47;2.45;;;;;;;;;;1889736;75;21123;-84
2022/09/24 09:05:26;;;;;;;5.58;2.83;;;;;;;;;;1890170;76;21122;-84
2022/09/24 09:07:54;;;;;;;4.00;2.47;;;;;;;;;;1883779;74;21098;-83
2022/09/24 09:10:27;;;;;;;4.67;2.83;;;;;;;;;;1890097;75;21064;-82
2022/09/24 09:12:58;;;;;;;5.30;2.80;;;;;;;;;;1876755;75;21101;-83
2022/09/24 09:15:30;;;;;;;4.37;2.85;;;;;;;;;;1887975;75;21182;-84
2022/09/24 09:18:01;;;;;;;6.05;2.95;;;;;;;;;;1880613;75;21055;-83
2022/09/24 09:20:33;;;;;;;6.25;3.20;;;;;;;;;;1884864;75;21177;-82
2022/09/24 09:23:04;;;;;;;6.58;2.80;;;;;;;;;;1880406;75;21168;-83
2022/09/24 09:25:36;;;;;;;3.72;2.47;;;;;;;;;;1893195;75;21610;-84
2022/09/24 09:28:07;;;;;;;5.40;3.10;;;;;;;;;;1881496;74;21130;-81
2022/09/24 09:30:42;;;;;;;4.70;3.10;;;;;;;;;;1897302;74;21186;-83
2022/09/24 09:33:14;;;;;;;7.00;3.60;;;;;;;;;;1899036;74;21106;-83
2022/09/24 09:35:41;;;;;;;7.20;4.15;;;;;;;;;;1906606;74;21121;-83
2022/09/24 09:38:16;;;;;;;6.08;3.15;;;;;;;;;;1845599;78;21147;-83
2022/09/24 09:40:45;;;;;;;6.53;3.33;;;;;;;;;;1812285;77;21080;-83
2022/09/24 09:43:16;;;;;;;6.92;3.05;;;;;;;;;;1844958;76;21588;-83
2022/09/24 09:45:48;;;;;;;10.30;5.40;;;;;;;;;;1844386;76;21141;-84
2022/09/24 09:48:19;;;;;;;10.18;3.55;;;;;;;;;;1840227;77;21714;-84
2022/09/24 09:50:51;;;;;;;6.60;3.50;;;;;;;;;;1844022;78;21740;-84
2022/09/24 09:53:22;;;;;;;5.20;3.22;;;;;;;;;;1845845;77;21097;-84
2022/09/24 09:55:54;;;;;;;7.70;3.92;;;;;;;;;;1844242;77;21250;-83
2022/09/24 09:58:25;;;;;;;7.22;3.70;;;;;;;;;;1836454;76;21167;-84
2022/09/24 10:00:57;;;;;;;5.67;3.15;;;;;;;;;;1830511;77;21187;-84
2022/09/24 10:03:29;;;;;;;7.30;3.50;;;;;;;;;;1858833;76;21149;-85
2022/09/24 10:06:01;;;;;;;7.25;3.50;;;;;;;;;;1854847;76;21112;-84
2022/09/24 10:08:31;;;;;;;5.53;3.17;;;;;;;;;;1890080;74;21145;-85
2022/09/24 10:11:02;;;;;;;5.67;3.42;;;;;;;;;;1887836;74;21121;-84
2022/09/24 10:13:32;;;;;;;6.10;3.40;;;;;;;;;;1886277;76;21193;-83
2022/09/24 10:16:04;;;;;;;4.03;2.83;;;;;;;;;;1884080;76;21212;-83
2022/09/24 10:18:33;;;;;;;3.95;3.08;;;;;;;;;;1894672;74;21136;-85
2022/09/24 10:21:07;;;;;;;5.75;3.08;;;;;;;;;;1887768;74;21617;-83
2022/09/24 10:23:38;;;;;;;6.25;3.12;;;;;;;;;;1884664;74;21287;-84
2022/09/24 10:26:08;;;;;;;8.40;3.40;;;;;;;;;;1901914;74;21130;-85
2022/09/24 10:31:12;;;;;;;7.15;3.47;;;;;;;;;;1885364;74;21580;-82
2022/09/24 10:33:43;;;;;;;8.73;3.80;;;;;;;;;;1883930;76;21123;-83
2022/09/24 10:36:13;;;;;;;7.20;3.00;;;;;;;;;;1894889;75;21061;-84
2022/09/24 10:38:44;;;;;;;7.47;3.80;;;;;;;;;;1894723;74;21152;-84
2022/09/24 10:41:16;;;;;;;6.22;3.45;;;;;;;;;;1888480;74;21196;-84
2022/09/24 10:43:47;;;;;;;6.85;3.37;;;;;;;;;;1881385;75;21137;-85
2022/09/24 10:46:20;;;;;;;4.92;3.00;;;;;;;;;;1886370;74;21172;-85
2022/09/24 10:48:52;;;;;;;4.33;3.30;;;;;;;;;;1887997;75;21150;-83
2022/09/24 10:51:23;;;;;;;5.30;3.77;;;;;;;;;;1881750;76;21182;-84
2022/09/24 10:53:55;;;;;;;6.80;4.00;;;;;;;;;;1887869;74;21688;-85
2022/09/24 10:56:27;;;;;;;6.67;3.77;;;;;;;;;;1857002;76;21623;-84
2022/09/24 10:58:58;;;;;;;7.97;4.78;;;;;;;;;;1841923;77;21133;-82
2022/09/24 11:01:31;;;;;;;6.67;3.87;;;;;;;;;;1842574;78;21149;-85
2022/09/24 11:04:03;;;;;;;7.28;4.72;;;;;;;;;;1842523;77;21954;-85
2022/09/24 11:06:35;;;;;;;11.18;7.65;;;;;;;;;;1842833;76;21202;-85
2022/09/24 11:09:06;;;;;;;9.85;6.40;;;;;;;;;;1838639;77;21072;-84
2022/09/24 11:11:39;;;;;;;7.55;4.97;;;;;;;;;;1853442;76;21171;-84
2022/09/24 11:14:08;;;;;;;6.33;4.28;;;;;;;;;;1867418;76;21217;-82
2022/09/24 11:16:40;;;;;;;6.25;3.80;;;;;;;;;;1831243;76;21255;-84
2022/09/24 11:19:10;;;;;;;8.13;4.50;;;;;;;;;;1838748;78;21120;-82
2022/09/24 11:21:39;;;;;;;6.92;4.60;;;;;;;;;;1843027;78;21151;-83
2022/09/24 11:24:11;;;;;;;6.90;4.47;;;;;;;;;;1840972;77;21182;-84
2022/09/24 11:26:42;;;;;;;7.37;4.80;;;;;;;;;;1840323;76;21551;-85
2022/09/24 11:29:14;;;;;;;7.40;4.17;;;;;;;;;;1823095;77;21144;-84
2022/09/24 11:31:45;;;;;;;6.72;4.30;;;;;;;;;;1851503;77;21159;-84
2022/09/24 11:34:15;;;;;;;6.53;4.62;;;;;;;;;;1852120;77;21480;-85
2022/09/24 11:36:46;;;;;;;7.28;4.40;;;;;;;;;;1859284;77;21180;-84
2022/09/24 11:39:17;;;;;;;6.53;4.28;;;;;;;;;;1858741;76;21095;-85
2022/09/24 11:41:49;;;;;;;9.23;4.05;;;;;;;;;;1855247;77;21146;-83
2022/09/24 11:44:21;;;;;;;7.75;4.78;;;;;;;;;;1869034;75;21121;-84
2022/09/24 11:46:52;;;;;;;6.28;3.30;;;;;;;;;;1856055;76;21135;-84
2022/09/24 11:49:23;;;;;;;3.15;1.75;;;;;;;;;;1859000;77;21623;-84
2022/09/24 11:51:55;;;;;;;3.45;1.60;;;;;;;;;;1856169;77;21155;-81
2022/09/24 11:54:26;;;;;;;3.80;1.30;;;;;;;;;;1857079;76;21093;-84
2022/09/24 11:56:58;;;;;;;3.50;1.55;;;;;;;;;;1856408;77;21131;-83
2022/09/24 11:59:33;;;;;;;2.95;1.17;;;;;;;;;;1838415;77;21169;-85
2022/09/24 12:02:02;;;;;;;3.70;1.52;;;;;;;;;;1845184;78;21332;-84
2022/09/24 12:04:33;;;;;;;1.92;1.22;;;;;;;;;;1851946;76;21278;-85
2022/09/24 12:07:05;;;;;;;2.95;1.30;;;;;;;;;;1840728;77;21178;-85
2022/09/24 12:09:37;;;;;;;2.17;1.02;;;;;;;;;;1844663;77;21123;-83
2022/09/24 12:12:08;;;;;;;4.22;1.40;;;;;;;;;;1845114;78;21102;-84
2022/09/24 12:14:40;;;;;;;4.30;2.02;;;;;;;;;;1846897;77;21130;-83
2022/09/24 12:17:11;;;;;;;2.85;1.65;;;;;;;;;;1816671;78;21220;-83
2022/09/24 12:19:42;;;;;;;3.15;1.80;;;;;;;;;;1852933;77;21125;-83
2022/09/24 12:22:13;;;;;;;2.45;1.52;;;;;;;;;;1829827;76;21057;-84
2022/09/24 12:24:44;;;;;;;3.95;1.95;;;;;;;;;;1859564;75;21218;-84
2022/09/24 12:27:15;;;;;;;3.72;1.70;;;;;;;;;;1861941;75;21110;-83
2022/09/24 12:34:51;;;;;;;7.78;2.77;;;;;;;;;;1858139;75;21155;-83
2022/09/24 12:37:22;;;;;;;6.35;2.30;;;;;;;;;;1859265;76;21093;-84
2022/09/24 12:39:56;;;;;;;4.92;2.40;;;;;;;;;;1866879;75;21117;-82
2022/09/24 12:42:28;;;;;;;5.08;2.05;;;;;;;;;;1860450;75;21204;-82
2022/09/24 12:44:59;;;;;;;5.20;1.92;;;;;;;;;;1870616;75;21113;-83
2022/09/24 12:47:32;;;;;;;7.15;2.30;;;;;;;;;;1856430;75;21690;-82
2022/09/24 12:50:03;;;;;;;5.25;2.17;;;;;;;;;;1868553;75;21162;-83
2022/09/24 12:52:35;;;;;;;7.90;2.40;;;;;;;;;;1850642;75;21108;-83
2022/09/24 12:55:24;;;;;;;4.35;2.08;;;;;;;;;;1854422;75;21126;-83
2022/09/24 12:57:56;;;;;;;4.85;1.80;;;;;;;;;;1859582;75;21206;-84
2022/09/24 13:00:56;;;;;;;4.17;1.98;;;;;;;;;;1853561;75;21300;-83
2022/09/24 13:03:45;;;;;;;4.03;1.60;;;;;;;;;;1857255;75;21173;-82
2022/09/24 13:06:23;;;;;;;5.08;2.22;;;;;;;;;;1860239;76;21198;-84
2022/09/24 13:09:12;;;;;;;5.33;1.80;;;;;;;;;;1853554;76;21188;-84
2022/09/24 13:11:43;;;;;;;4.42;1.47;;;;;;;;;;1851622;76;21090;-82
2022/09/24 13:14:15;;;;;;;3.70;1.52;;;;;;;;;;1857579;76;21072;-83
2022/09/24 13:16:47;;;;;;;3.27;1.80;;;;;;;;;;1827638;77;21187;-83
2022/09/24 13:19:19;;;;;;;5.37;1.98;;;;;;;;;;1828214;77;21559;-83
2022/09/24 13:21:54;;;;;;;4.87;1.70;;;;;;;;;;1864170;75;21154;-81
2022/09/24 13:24:36;;;;;;;11.15;2.08;;;;;;;;;;1828649;77;21147;-82
2022/09/24 13:27:04;;;;;;;5.60;1.70;;;;;;;;;;1828714;76;21634;-84
2022/09/24 13:29:39;;;;;;;;;;;;;;;;;;1833324;77;21215;-83
2022/09/24 13:32:10;;;;;;;3.42;1.67;;;;;;;;;;1792626;79;20170;-83
2022/09/24 13:34:42;;;;;;;3.10;1.57;;;;;;;;;;1863649;75;21870;-82
2022/09/24 13:37:13;;;;;;;3.85;1.75;;;;;;;;;;1854977;76;21061;-82
2022/09/24 13:39:45;;;;;;;7.60;2.27;;;;;;;;;;1861679;75;21168;-83
2022/09/24 13:42:34;;;;;;;4.42;1.70;;;;;;;;;;1847976;76;21185;-81
2022/09/24 13:45:10;;;;;;;5.10;1.72;;;;;;;;;;1857957;76;21146;-82
2022/09/24 13:47:41;;;;;;;3.90;1.90;;;;;;;;;;1862993;75;21132;-83
2022/09/24 13:50:13;;;;;;;4.42;1.67;;;;;;;;;;1862805;76;21191;-83
2022/09/24 13:52:44;;;;;;;6.05;1.80;;;;;;;;;;1853174;76;21155;-84
2022/09/24 13:55:16;;;;;;;4.58;1.85;;;;;;;;;;1856293;76;21964;-84
2022/09/24 13:57:47;;;;;;;4.45;1.95;;;;;;;;;;1862517;76;21159;-83
2022/09/24 14:00:18;;;;;;;7.53;1.87;;;;;;;;;;1857012;76;21782;-84
2022/09/24 14:02:50;;;;;;;3.02;1.65;;;;;;;;;;1888367;75;21126;-83
2022/09/24 14:05:20;;;;;;;5.17;1.40;;;;;;;;;;1883608;74;21188;-84
2022/09/24 14:07:52;;;;;;;3.35;1.67;;;;;;;;;;1890189;74;21189;-84
2022/09/24 14:10:26;;;;;;;4.47;1.85;;;;;;;;;;1890786;74;21151;-84
2022/09/24 14:12:56;;;;;;;3.65;1.75;;;;;;;;;;1852579;76;21274;-84
2022/09/24 14:15:26;;;;;;;4.40;1.72;;;;;;;;;;1851900;75;21076;-83
2022/09/24 14:17:58;;;;;;;3.67;1.80;;;;;;;;;;1852743;76;21705;-83
2022/09/24 14:20:29;;;;;;;3.85;1.80;;;;;;;;;;1870595;76;21224;-82
2022/09/24 14:23:00;;;;;;;4.25;2.12;;;;;;;;;;1869446;76;21359;-82
2022/09/24 14:25:31;;;;;;;3.95;2.05;;;;;;;;;;1867759;76;21661;-83
2022/09/24 14:28:03;;;;;;;4.08;1.90;;;;;;;;;;1858286;76;21217;-84
2022/09/24 14:30:34;;;;;;;5.85;1.95;;;;;;;;;;1853153;76;21160;-83
2022/09/24 14:33:06;;;;;;;5.45;2.35;;;;;;;;;;1858360;76;21732;-83
2022/09/24 14:35:37;;;;;;;4.95;2.00;;;;;;;;;;1875050;76;21139;-83
2022/09/24 14:38:09;;;;;;;3.45;1.95;;;;;;;;;;1855872;76;21112;-81
2022/09/24 14:40:40;;;;;;;3.72;2.30;;;;;;;;;;1880065;76;21272;-82
2022/09/24 14:43:12;;;;;;;3.40;2.25;;;;;;;;;;1836515;77;21177;-82
2022/09/24 14:45:43;;;;;;;3.25;1.87;;;;;;;;;;1864349;76;21612;-82
2022/09/24 14:48:22;;;;;;;4.35;2.20;;;;;;;;;;1867006;76;21170;-82
2022/09/24 14:50:52;;;;;;;3.95;2.00;;;;;;;;;;1854028;76;21162;-81
2022/09/24 14:53:24;;;;;;;4.37;2.05;;;;;;;;;;1854767;76;21192;-85
2022/09/24 14:55:57;;;;;;;7.47;2.67;;;;;;;;;;1853830;76;21195;-83
2022/09/24 14:58:28;;;;;;;6.37;2.45;;;;;;;;;;1869740;75;21108;-83
2022/09/24 15:01:07;;;;;;;10.05;2.85;;;;;;;;;;1859909;75;21070;-82
2022/09/24 15:03:38;;;;;;;6.33;2.80;;;;;;;;;;1857913;76;21657;-83
2022/09/24 15:06:10;;;;;;;7.53;3.20;;;;;;;;;;1856104;76;21083;-84
2022/09/24 15:08:42;;;;;;;8.05;3.00;;;;;;;;;;1859664;75;21585;-83
2022/09/24 15:11:14;;;;;;;8.23;3.25;;;;;;;;;;1859039;75;21220;-83
2022/09/24 15:13:51;;;;;;;6.97;3.50;;;;;;;;;;1857481;74;21130;-82
2022/09/24 15:16:23;;;;;;;7.97;3.27;;;;;;;;;;1863903;74;21091;-83
2022/09/24 15:18:54;;;;;;;6.87;3.65;;;;;;;;;;1877947;75;21138;-83
2022/09/24 15:21:26;;;;;;;8.10;3.58;;;;;;;;;;1859285;75;21134;-83
2022/09/24 15:24:01;;;;;;;6.78;3.52;;;;;;;;;;1863950;75;21141;-84
2022/09/24 15:26:52;;;;;;;6.72;3.17;;;;;;;;;;1870186;75;21127;-81
2022/09/24 15:29:12;;;;;;;9.50;3.87;;;;;;;;;;1868574;76;21135;-83